createdAt,value
2023-03-05T00:00:50.433Z,9.55
2023-03-05T00:01:53.583Z,8.52
2023-03-05T00:02:55.401Z,7.80
2023-03-05T00:03:58.482Z,7.97
2023-03-05T00:05:01.338Z,8.25
2023-03-05T00:06:04.007Z,9.07
2023-03-05T00:07:08.976Z,7.93
2023-03-05T00:08:12.297Z,8.27
2023-03-05T00:09:15.436Z,8.43
2023-03-05T00:10:17.541Z,8.68
2023-03-05T00:11:21.616Z,8.63
2023-03-05T00:12:23.427Z,8.02
2023-03-05T00:13:26.644Z,8.63
2023-03-05T00:14:28.573Z,8.52
2023-03-05T00:15:31.357Z,8.63
2023-03-05T00:16:33.445Z,8.35
2023-03-05T00:17:36.303Z,8.07
2023-03-05T00:18:38.446Z,8.13
2023-03-05T00:19:41.173Z,8.55
2023-03-05T00:20:43.028Z,9.23
2023-03-05T00:21:45.773Z,8.98
2023-03-05T00:22:47.517Z,8.05
2023-03-05T00:23:52.208Z,8.70
2023-03-05T00:24:53.955Z,7.88
2023-03-05T00:25:56.788Z,8.05
2023-03-05T00:26:59.643Z,8.02
2023-03-05T00:28:01.478Z,7.43
2023-03-05T00:29:04.477Z,7.40
2023-03-05T00:30:08.024Z,7.45
2023-03-05T00:31:12.618Z,6.97
2023-03-05T00:32:14.586Z,7.00
2023-03-05T00:33:17.436Z,7.00
2023-03-05T00:34:19.777Z,7.07
2023-03-05T00:35:22.691Z,6.38
2023-03-05T00:36:25.263Z,6.85
2023-03-05T00:37:28.046Z,7.05
2023-03-05T00:38:29.811Z,6.82
2023-03-05T00:39:34.306Z,6.25
2023-03-05T00:40:37.561Z,7.10
2023-03-05T00:41:40.726Z,6.82
2023-03-05T00:42:43.048Z,7.13
2023-03-05T00:43:46.023Z,7.13
2023-03-05T00:44:47.804Z,6.88
2023-03-05T00:45:50.697Z,6.57
2023-03-05T00:46:53.349Z,6.10
2023-03-05T00:47:56.071Z,6.13
2023-03-05T00:48:58.302Z,6.65
2023-03-05T00:50:01.317Z,6.43
2023-03-05T00:51:03.574Z,6.00
2023-03-05T00:52:25.189Z,5.47
2023-03-05T00:53:27.190Z,5.72
2023-03-05T00:54:30.050Z,5.00
2023-03-05T00:55:36.033Z,4.80
2023-03-05T00:56:38.785Z,4.55
2023-03-05T00:57:40.751Z,5.22
2023-03-05T00:58:44.023Z,4.97
2023-03-05T00:59:47.676Z,4.63
2023-03-05T01:00:50.543Z,4.72
2023-03-05T01:01:53.382Z,4.50
2023-03-05T01:02:55.514Z,4.15
2023-03-05T01:03:59.574Z,4.78
2023-03-05T01:05:01.568Z,4.90
2023-03-05T01:06:07.406Z,4.93
2023-03-05T01:07:09.221Z,5.38
2023-03-05T01:08:12.750Z,4.63
2023-03-05T01:09:15.511Z,4.72
2023-03-05T01:10:17.312Z,4.72
2023-03-05T01:11:40.766Z,5.68
2023-03-05T01:12:42.848Z,4.70
2023-03-05T01:13:45.725Z,4.57
2023-03-05T01:14:47.575Z,4.63
2023-03-05T01:15:51.058Z,4.10
2023-03-05T01:16:52.960Z,4.30
2023-03-05T01:17:56.240Z,3.92
2023-03-05T01:18:58.092Z,4.68
2023-03-05T01:20:00.855Z,4.50
2023-03-05T01:21:03.693Z,3.90
2023-03-05T01:22:06.661Z,3.95
2023-03-05T01:23:08.496Z,4.15
2023-03-05T01:24:11.852Z,3.85
2023-03-05T01:25:15.007Z,4.55
2023-03-05T01:26:18.091Z,3.72
2023-03-05T01:27:21.684Z,4.00
2023-03-05T01:28:24.990Z,4.13
2023-03-05T01:29:27.192Z,4.47
2023-03-05T01:30:30.129Z,3.95
2023-03-05T01:31:33.823Z,3.85
2023-03-05T01:32:36.075Z,4.53
2023-03-05T01:33:39.451Z,4.22
2023-03-05T01:34:42.263Z,3.85
2023-03-05T01:35:47.509Z,3.97
2023-03-05T01:36:50.378Z,4.00
2023-03-05T01:37:53.336Z,4.05
2023-03-05T01:38:55.609Z,4.20
2023-03-05T01:39:58.797Z,3.80
2023-03-05T01:41:00.609Z,4.22
2023-03-05T01:42:03.681Z,4.25
2023-03-05T01:43:21.532Z,3.83
2023-03-05T01:44:26.798Z,4.03
2023-03-05T01:45:31.815Z,4.70
2023-03-05T01:46:37.316Z,5.03
2023-03-05T01:47:39.609Z,3.80
2023-03-05T01:48:43.541Z,4.25
2023-03-05T01:49:45.410Z,4.32
2023-03-05T01:50:48.236Z,5.90
2023-03-05T01:51:56.380Z,4.68
2023-03-05T01:53:01.276Z,4.30
2023-03-05T01:54:05.374Z,4.78
2023-03-05T01:55:11.315Z,4.20
2023-03-05T01:56:13.297Z,4.35
2023-03-05T01:57:18.336Z,3.67
2023-03-05T01:58:21.728Z,3.85
2023-03-05T01:59:25.615Z,4.00
2023-03-05T02:00:29.852Z,4.40
2023-03-05T02:01:35.552Z,4.20
2023-03-05T02:02:37.548Z,4.47
2023-03-05T02:03:40.600Z,3.90
2023-03-05T02:04:45.257Z,3.95
2023-03-05T02:05:48.454Z,3.65
2023-03-05T02:06:52.056Z,3.58
2023-03-05T02:07:55.901Z,3.75
2023-03-05T02:08:58.905Z,3.72
2023-03-05T02:10:02.105Z,3.67
2023-03-05T02:11:04.552Z,3.85
2023-03-05T02:12:08.394Z,4.38
2023-03-05T02:13:12.524Z,4.82
2023-03-05T02:14:16.843Z,4.68
2023-03-05T02:15:19.187Z,5.47
2023-03-05T02:16:25.248Z,4.95
2023-03-05T02:17:29.569Z,4.55
2023-03-05T02:18:32.467Z,4.47
2023-03-05T02:19:47.632Z,4.45
2023-03-05T02:20:53.878Z,4.65
2023-03-05T02:21:57.553Z,4.53
2023-03-05T02:23:00.433Z,3.90
2023-03-05T02:24:02.358Z,4.00
2023-03-05T02:25:17.184Z,4.25
2023-03-05T02:26:18.969Z,4.95
2023-03-05T02:27:24.327Z,4.28
2023-03-05T02:28:28.676Z,4.18
2023-03-05T02:29:32.846Z,4.40
2023-03-05T02:30:35.459Z,4.55
2023-03-05T02:31:39.203Z,3.65
2023-03-05T02:32:41.111Z,4.10
2023-03-05T02:33:45.202Z,3.88
2023-03-05T02:34:48.009Z,3.03
2023-03-05T02:35:52.440Z,3.63
2023-03-05T02:36:55.562Z,3.40
2023-03-05T02:38:01.278Z,3.65
2023-03-05T02:39:03.748Z,3.30
2023-03-05T02:40:07.836Z,3.60
2023-03-05T02:41:10.601Z,3.38
2023-03-05T02:42:14.228Z,3.22
2023-03-05T02:43:17.101Z,3.72
2023-03-05T02:44:20.122Z,3.92
2023-03-05T02:45:22.135Z,3.47
2023-03-05T02:46:25.032Z,3.30
2023-03-05T02:47:27.212Z,3.55
2023-03-05T02:48:30.158Z,3.63
2023-03-05T02:49:32.467Z,3.15
2023-03-05T02:50:35.546Z,4.13
2023-03-05T02:51:38.168Z,4.57
2023-03-05T02:52:41.916Z,3.13
2023-03-05T02:53:49.891Z,2.90
2023-03-05T02:54:53.914Z,3.95
2023-03-05T02:55:57.961Z,4.10
2023-03-05T02:57:00.747Z,4.18
2023-03-05T02:58:02.675Z,4.55
2023-03-05T02:59:05.611Z,4.53
2023-03-05T03:00:09.365Z,4.30
2023-03-05T03:01:12.350Z,4.57
2023-03-05T03:02:14.869Z,4.05
2023-03-05T03:03:18.096Z,4.88
2023-03-05T03:04:19.988Z,4.40
2023-03-05T03:05:23.606Z,5.15
2023-03-05T03:06:26.830Z,4.72
2023-03-05T03:07:29.946Z,4.35
2023-03-05T03:08:31.702Z,3.80
2023-03-05T03:09:36.440Z,3.63
2023-03-05T03:10:38.653Z,3.17
2023-03-05T03:11:41.379Z,3.28
2023-03-05T03:12:44.582Z,4.05
2023-03-05T03:13:47.485Z,3.92
2023-03-05T03:14:49.921Z,3.72
2023-03-05T03:16:03.599Z,4.13
2023-03-05T03:17:06.054Z,3.50
2023-03-05T03:18:09.404Z,4.15
2023-03-05T03:19:13.354Z,3.90
2023-03-05T03:20:17.992Z,4.00
2023-03-05T03:21:22.239Z,4.13
2023-03-05T03:22:25.113Z,3.67
2023-03-05T03:23:27.401Z,4.47
2023-03-05T03:24:30.945Z,4.03
2023-03-05T03:25:35.213Z,3.97
2023-03-05T03:26:38.629Z,3.55
2023-03-05T03:27:40.684Z,3.90
2023-03-05T03:28:43.892Z,3.80
2023-03-05T03:29:45.717Z,3.63
2023-03-05T03:30:48.781Z,4.07
2023-03-05T03:31:51.220Z,4.85
2023-03-05T03:32:53.985Z,4.40
2023-03-05T03:33:56.978Z,3.70
2023-03-05T03:35:00.369Z,4.25
2023-03-05T03:36:04.499Z,3.97
2023-03-05T03:37:08.567Z,3.95
2023-03-05T03:38:12.048Z,4.13
2023-03-05T03:39:15.114Z,4.10
2023-03-05T03:40:17.262Z,4.30
2023-03-05T03:41:21.480Z,4.28
2023-03-05T03:42:23.780Z,4.40
2023-03-05T03:43:26.666Z,4.13
2023-03-05T03:44:29.099Z,4.50
2023-03-05T03:45:32.001Z,3.88
2023-03-05T03:46:33.953Z,5.20
2023-03-05T03:47:40.157Z,4.80
2023-03-05T03:48:41.940Z,6.90
2023-03-05T03:49:44.769Z,5.93
2023-03-05T03:50:46.861Z,5.60
2023-03-05T03:51:50.420Z,6.00
2023-03-05T03:52:52.698Z,6.22
2023-03-05T03:53:55.866Z,6.45
2023-03-05T03:55:01.684Z,7.72
2023-03-05T03:56:05.025Z,6.75
2023-03-05T03:57:08.228Z,7.60
2023-03-05T03:58:14.672Z,7.75
2023-03-05T03:59:16.529Z,7.15
2023-03-05T04:00:20.479Z,7.00
2023-03-05T04:01:22.552Z,7.55
2023-03-05T04:02:25.492Z,8.10
2023-03-05T04:03:29.149Z,7.22
2023-03-05T04:04:31.881Z,7.35
2023-03-05T04:05:33.729Z,7.90
2023-03-05T04:06:37.621Z,6.88
2023-03-05T04:07:39.395Z,7.13
2023-03-05T04:08:42.155Z,7.68
2023-03-05T04:09:44.327Z,7.90
2023-03-05T04:10:47.098Z,7.30
2023-03-05T04:11:48.864Z,7.85
2023-03-05T04:12:53.318Z,7.60
2023-03-05T04:13:55.125Z,7.75
2023-03-05T04:15:00.520Z,7.85
2023-03-05T04:16:02.468Z,7.20
2023-03-05T04:17:07.466Z,8.15
2023-03-05T04:18:09.904Z,8.18
2023-03-05T04:19:12.849Z,7.53
2023-03-05T04:20:14.825Z,8.80
2023-03-05T04:21:18.189Z,8.50
2023-03-05T04:22:20.025Z,8.52
2023-03-05T04:23:22.874Z,8.95
2023-03-05T04:24:24.793Z,8.43
2023-03-05T04:25:27.608Z,7.40
2023-03-05T04:26:34.043Z,7.25
2023-03-05T04:27:37.468Z,8.50
2023-03-05T04:28:41.065Z,8.60
2023-03-05T04:29:43.866Z,8.18
2023-03-05T04:30:48.656Z,8.77
2023-03-05T04:31:51.442Z,6.07
2023-03-05T04:32:53.204Z,6.05
2023-03-05T04:33:57.014Z,6.25
2023-03-05T04:35:00.727Z,6.22
2023-03-05T04:36:03.463Z,5.03
2023-03-05T04:37:05.314Z,5.75
2023-03-05T04:38:08.502Z,4.97
2023-03-05T04:39:10.300Z,7.43
2023-03-05T04:40:13.799Z,7.82
2023-03-05T04:41:15.676Z,7.88
2023-03-05T04:42:19.992Z,7.35
2023-03-05T04:43:22.238Z,6.90
2023-03-05T04:44:27.014Z,5.93
2023-03-05T04:45:28.949Z,5.80
2023-03-05T04:46:31.740Z,5.97
2023-03-05T04:47:34.262Z,5.30
2023-03-05T04:48:37.308Z,5.18
2023-03-05T04:49:39.178Z,5.43
2023-03-05T04:50:41.986Z,4.85
2023-03-05T04:51:46.948Z,5.70
2023-03-05T04:52:49.796Z,5.97
2023-03-05T04:53:51.647Z,5.65
2023-03-05T04:54:55.024Z,6.75
2023-03-05T04:55:57.184Z,6.10
2023-03-05T04:57:00.034Z,6.05
2023-03-05T04:58:02.024Z,6.18
2023-03-05T04:59:04.935Z,6.32
2023-03-05T05:00:14.044Z,6.60
2023-03-05T05:01:17.567Z,6.38
2023-03-05T05:02:19.457Z,6.18
2023-03-05T05:03:22.286Z,7.50
2023-03-05T05:04:24.363Z,6.72
2023-03-05T05:05:28.944Z,6.70
2023-03-05T05:06:31.216Z,6.32
2023-03-05T05:07:33.932Z,6.30
2023-03-05T05:08:36.976Z,6.93
2023-03-05T05:09:41.145Z,6.85
2023-03-05T05:10:42.883Z,6.97
2023-03-05T05:11:45.627Z,7.40
2023-03-05T05:12:47.708Z,7.15
2023-03-05T05:13:50.605Z,7.03
2023-03-05T05:14:52.384Z,7.55
2023-03-05T05:15:56.988Z,7.47
2023-03-05T05:16:59.637Z,7.57
2023-03-05T05:18:02.412Z,7.40
2023-03-05T05:19:04.608Z,7.00
2023-03-05T05:20:10.877Z,8.15
2023-03-05T05:21:13.823Z,6.28
2023-03-05T05:22:16.744Z,7.28
2023-03-05T05:23:18.698Z,6.45
2023-03-05T05:24:21.458Z,6.90
2023-03-05T05:25:23.476Z,7.10
2023-03-05T05:26:26.415Z,6.93
2023-03-05T05:27:28.244Z,6.95
2023-03-05T05:28:31.338Z,7.47
2023-03-05T05:29:34.094Z,7.32
2023-03-05T05:30:36.161Z,6.28
2023-03-05T05:31:41.882Z,6.95
2023-03-05T05:32:44.125Z,5.65
2023-03-05T05:33:49.590Z,6.03
2023-03-05T05:34:55.174Z,6.30
2023-03-05T05:35:58.021Z,6.43
2023-03-05T05:36:59.882Z,6.60
2023-03-05T05:38:03.245Z,6.57
2023-03-05T05:39:05.579Z,6.50
2023-03-05T05:40:09.774Z,6.40
2023-03-05T05:41:14.733Z,7.43
2023-03-05T05:42:18.009Z,6.57
2023-03-05T05:43:19.834Z,6.70
2023-03-05T05:44:23.040Z,6.90
2023-03-05T05:45:24.907Z,7.00
2023-03-05T05:46:28.920Z,6.78
2023-03-05T05:47:32.165Z,7.38
2023-03-05T05:48:36.690Z,7.43
2023-03-05T05:49:38.549Z,9.15
2023-03-05T05:50:41.323Z,9.40
2023-03-05T05:51:43.122Z,9.23
2023-03-05T05:52:45.856Z,9.70
2023-03-05T05:53:48.111Z,9.10
2023-03-05T05:54:50.835Z,9.23
2023-03-05T05:55:52.925Z,9.15
2023-03-05T05:56:55.793Z,9.18
2023-03-05T05:57:57.561Z,9.60
2023-03-05T05:59:00.437Z,9.75
2023-03-05T06:00:03.660Z,9.98
2023-03-05T06:01:16.529Z,10.27
2023-03-05T06:02:18.328Z,9.48
2023-03-05T06:03:23.026Z,10.43
2023-03-05T06:04:24.993Z,10.55
2023-03-05T06:05:27.749Z,10.27
2023-03-05T06:06:30.290Z,11.02
2023-03-05T06:07:33.044Z,11.00
2023-03-05T06:08:34.789Z,12.05
2023-03-05T06:09:37.949Z,11.40
2023-03-05T06:10:39.712Z,11.73
2023-03-05T06:11:42.439Z,11.73
2023-03-05T06:12:44.352Z,12.10
2023-03-05T06:13:47.301Z,11.73
2023-03-05T06:14:49.310Z,11.43
2023-03-05T06:15:58.785Z,12.43
2023-03-05T06:17:00.740Z,11.25
2023-03-05T06:18:03.550Z,11.88
2023-03-05T06:19:06.794Z,11.32
2023-03-05T06:20:10.674Z,12.75
2023-03-05T06:21:13.879Z,11.25
2023-03-05T06:22:17.103Z,12.20
2023-03-05T06:23:18.887Z,12.13
2023-03-05T06:24:22.365Z,11.90
2023-03-05T06:25:24.589Z,12.65
2023-03-05T06:26:27.416Z,13.20
2023-03-05T06:27:29.204Z,12.27
2023-03-05T06:28:32.868Z,12.57
2023-03-05T06:29:34.611Z,12.13
2023-03-05T06:30:37.400Z,12.93
2023-03-05T06:31:39.651Z,13.40
2023-03-05T06:32:42.405Z,12.48
2023-03-05T06:33:44.715Z,14.15
2023-03-05T06:34:48.837Z,12.50
2023-03-05T06:35:50.650Z,12.15
2023-03-05T06:36:53.495Z,12.18
2023-03-05T06:37:55.339Z,12.98
2023-03-05T06:38:58.931Z,13.52
2023-03-05T06:40:00.768Z,13.05
2023-03-05T06:41:06.046Z,12.65
2023-03-05T06:42:08.919Z,12.02
2023-03-05T06:43:10.696Z,12.60
2023-03-05T06:44:13.961Z,14.15
2023-03-05T06:45:15.823Z,11.80
2023-03-05T06:46:20.871Z,13.35
2023-03-05T06:47:22.743Z,12.15
2023-03-05T06:48:25.497Z,12.98
2023-03-05T06:49:27.351Z,12.25
2023-03-05T06:50:31.893Z,12.25
2023-03-05T06:51:35.397Z,11.90
2023-03-05T06:52:40.388Z,12.43
2023-03-05T06:53:43.018Z,11.55
2023-03-05T06:54:45.889Z,11.50
2023-03-05T06:55:47.648Z,11.15
2023-03-05T06:56:50.751Z,10.50
2023-03-05T06:57:52.558Z,9.27
2023-03-05T06:58:56.062Z,9.90
2023-03-05T06:59:57.856Z,8.93
2023-03-05T07:01:00.660Z,9.18
2023-03-05T07:02:02.834Z,9.77
2023-03-05T07:03:05.972Z,8.68
2023-03-05T07:04:08.106Z,8.77
2023-03-05T07:05:11.450Z,8.90
2023-03-05T07:06:15.852Z,9.80
2023-03-05T07:07:18.624Z,8.13
2023-03-05T07:08:20.420Z,8.30
2023-03-05T07:09:23.306Z,8.00
2023-03-05T07:10:25.103Z,8.65
2023-03-05T07:11:28.232Z,8.60
2023-03-05T07:12:30.043Z,9.18
2023-03-05T07:13:32.858Z,9.80
2023-03-05T07:14:34.626Z,10.07
2023-03-05T07:15:39.977Z,10.43
2023-03-05T07:16:41.746Z,9.18
2023-03-05T07:17:44.809Z,9.70
2023-03-05T07:18:47.368Z,10.52
2023-03-05T07:19:50.090Z,9.52
2023-03-05T07:20:51.934Z,9.90
2023-03-05T07:21:56.055Z,8.93
2023-03-05T07:22:57.906Z,9.27
2023-03-05T07:24:02.243Z,9.35
2023-03-05T07:25:04.755Z,9.70
2023-03-05T07:26:08.077Z,9.18
2023-03-05T07:27:09.905Z,8.60
2023-03-05T07:28:12.925Z,7.90
2023-03-05T07:29:15.665Z,8.55
2023-03-05T07:30:18.248Z,8.35
2023-03-05T07:31:22.757Z,8.20
2023-03-05T07:32:24.585Z,8.50
2023-03-05T07:33:27.891Z,7.43
2023-03-05T07:34:30.203Z,7.63
2023-03-05T07:35:32.954Z,6.95
2023-03-05T07:36:35.060Z,6.53
2023-03-05T07:37:39.605Z,7.03
2023-03-05T07:38:41.567Z,6.60
2023-03-05T07:39:46.334Z,6.82
2023-03-05T07:40:49.347Z,6.63
2023-03-05T07:41:52.764Z,7.68
2023-03-05T07:43:03.616Z,6.43
2023-03-05T07:44:09.890Z,6.50
2023-03-05T07:45:12.929Z,6.55
2023-03-05T07:46:16.807Z,6.65
2023-03-05T07:47:19.601Z,6.85
2023-03-05T07:48:21.448Z,6.68
2023-03-05T07:49:24.500Z,6.55
2023-03-05T07:50:26.690Z,5.97
2023-03-05T07:51:29.489Z,6.57
2023-03-05T07:52:32.325Z,6.47
2023-03-05T07:53:36.091Z,6.55
2023-03-05T07:54:41.045Z,6.82
2023-03-05T07:55:43.860Z,6.13
2023-03-05T07:56:46.677Z,7.00
2023-03-05T07:57:48.481Z,6.53
2023-03-05T07:58:51.324Z,7.07
2023-03-05T07:59:53.617Z,7.18
2023-03-05T08:00:56.372Z,7.18
2023-03-05T08:01:59.676Z,7.65
2023-03-05T08:03:01.552Z,7.22
2023-03-05T08:04:05.072Z,7.93
2023-03-05T08:05:08.642Z,7.30
2023-03-05T08:06:12.807Z,7.15
2023-03-05T08:07:15.533Z,7.28
2023-03-05T08:08:18.625Z,7.63
2023-03-05T08:09:22.840Z,7.60
2023-03-05T08:10:24.675Z,7.93
2023-03-05T08:11:28.465Z,7.25
2023-03-05T08:12:30.482Z,7.70
2023-03-05T08:13:33.392Z,7.40
2023-03-05T08:14:36.096Z,6.63
2023-03-05T08:15:38.367Z,7.65
2023-03-05T08:16:41.186Z,7.65
2023-03-05T08:17:43.011Z,7.05
2023-03-05T08:18:46.375Z,7.57
2023-03-05T08:19:49.225Z,7.18
2023-03-05T08:20:51.700Z,7.00
2023-03-05T08:21:55.638Z,6.95
2023-03-05T08:22:57.502Z,7.18
2023-03-05T08:24:00.953Z,7.30
2023-03-05T08:25:06.203Z,6.57
2023-03-05T08:26:13.559Z,7.82
2023-03-05T08:27:16.296Z,6.95
2023-03-05T08:28:19.676Z,6.85
2023-03-05T08:29:22.462Z,7.90
2023-03-05T08:30:27.136Z,7.93
2023-03-05T08:31:31.199Z,6.90
2023-03-05T08:32:33.100Z,7.88
2023-03-05T08:33:35.954Z,8.52
2023-03-05T08:34:38.848Z,8.80
2023-03-05T08:35:40.736Z,9.50
2023-03-05T08:36:43.507Z,9.32
2023-03-05T08:37:45.739Z,9.45
2023-03-05T08:38:48.547Z,9.95
2023-03-05T08:39:50.302Z,10.20
2023-03-05T08:40:54.576Z,10.07
2023-03-05T08:41:57.332Z,9.95
2023-03-05T08:42:59.868Z,9.68
2023-03-05T08:44:02.903Z,10.95
2023-03-05T08:45:05.399Z,10.57
2023-03-05T08:46:08.642Z,9.65
2023-03-05T08:47:10.950Z,9.48
2023-03-05T08:48:13.740Z,10.65
2023-03-05T08:49:16.511Z,10.23
2023-03-05T08:50:18.897Z,10.95
2023-03-05T08:51:25.420Z,9.65
2023-03-05T08:52:27.452Z,10.23
2023-03-05T08:53:30.656Z,10.48
2023-03-05T08:54:34.457Z,9.77
2023-03-05T08:55:37.490Z,10.80
2023-03-05T08:56:41.828Z,10.10
2023-03-05T08:57:43.616Z,11.15
2023-03-05T08:58:48.030Z,10.02
2023-03-05T08:59:50.084Z,9.88
2023-03-05T09:00:52.938Z,10.13
2023-03-05T09:01:55.705Z,9.32
2023-03-05T09:02:58.038Z,9.18
2023-03-05T09:04:01.145Z,10.05
2023-03-05T09:05:03.592Z,10.68
2023-03-05T09:06:08.844Z,10.27
2023-03-05T09:07:11.337Z,10.52
2023-03-05T09:08:14.184Z,10.43
2023-03-05T09:09:16.050Z,10.23
2023-03-05T09:10:19.209Z,9.80
2023-03-05T09:11:21.897Z,9.63
2023-03-05T09:12:26.024Z,9.60
2023-03-05T09:13:27.902Z,9.50
2023-03-05T09:14:30.684Z,9.35
2023-03-05T09:15:33.530Z,9.05
2023-03-05T09:16:36.301Z,10.00
2023-03-05T09:17:41.680Z,9.23
2023-03-05T09:18:43.729Z,9.63
2023-03-05T09:19:46.506Z,9.48
2023-03-05T09:20:48.340Z,10.27
2023-03-05T09:21:51.507Z,9.93
2023-03-05T09:22:54.210Z,9.90
2023-03-05T09:23:59.663Z,9.82
2023-03-05T09:25:02.684Z,9.13
2023-03-05T09:26:05.456Z,10.25
2023-03-05T09:27:08.176Z,10.93
2023-03-05T09:28:11.466Z,10.10
2023-03-05T09:29:14.395Z,10.18
2023-03-05T09:30:16.936Z,10.35
2023-03-05T09:31:19.925Z,10.80
2023-03-05T09:32:21.822Z,10.90
2023-03-05T09:33:24.599Z,10.75
2023-03-05T09:34:27.912Z,10.90
2023-03-05T09:35:29.754Z,10.63
2023-03-05T09:36:33.079Z,10.95
2023-03-05T09:37:35.148Z,10.98
2023-03-05T09:38:39.171Z,11.05
2023-03-05T09:39:41.388Z,10.95
2023-03-05T09:40:50.300Z,11.38
2023-03-05T09:42:06.545Z,11.02
2023-03-05T09:43:20.339Z,10.70
2023-03-05T09:44:27.708Z,10.88
2023-03-05T09:45:34.354Z,10.18
2023-03-05T09:46:44.934Z,10.80
2023-03-05T09:47:54.522Z,10.02
2023-03-05T09:49:02.190Z,9.45
2023-03-05T09:50:10.512Z,9.93
2023-03-05T09:51:16.873Z,9.00
2023-03-05T09:52:21.370Z,8.10
2023-03-05T09:53:32.946Z,8.50
2023-03-05T09:54:38.509Z,9.40
2023-03-05T09:55:43.922Z,9.48
2023-03-05T09:56:49.290Z,8.23
2023-03-05T09:57:54.755Z,9.20
2023-03-05T09:59:01.883Z,8.85
2023-03-05T10:00:08.108Z,9.75
2023-03-05T10:01:17.069Z,8.65
2023-03-05T10:02:22.118Z,9.13
2023-03-05T10:03:28.145Z,8.55
2023-03-05T10:04:41.660Z,9.85
2023-03-05T10:06:01.469Z,9.68
2023-03-05T10:07:08.889Z,10.18
2023-03-05T10:08:13.545Z,10.40
2023-03-05T10:09:20.871Z,10.52
2023-03-05T10:10:26.733Z,11.15
2023-03-05T10:11:41.267Z,11.20
2023-03-05T10:12:45.803Z,16.15
2023-03-05T10:13:47.823Z,15.02
2023-03-05T10:14:52.109Z,13.07
2023-03-05T10:16:01.852Z,12.13
2023-03-05T10:17:23.048Z,13.18
2023-03-05T10:18:32.126Z,13.07
2023-03-05T10:19:45.350Z,12.80
2023-03-05T10:20:56.611Z,12.85
2023-03-05T10:22:11.294Z,14.15
2023-03-05T10:23:30.290Z,14.45
2023-03-05T10:24:40.522Z,15.00
2023-03-05T10:26:01.203Z,15.20
2023-03-05T10:27:09.310Z,15.50
2023-03-05T10:28:17.919Z,16.15
2023-03-05T10:29:34.731Z,15.35
2023-03-05T10:30:54.785Z,17.75
2023-03-05T10:32:07.857Z,15.55
2023-03-05T10:33:15.982Z,16.40
2023-03-05T10:34:33.243Z,14.77
2023-03-05T10:36:07.475Z,14.68
2023-03-05T10:37:32.059Z,14.75
2023-03-05T10:38:44.637Z,18.65
2023-03-05T10:39:54.226Z,21.98
2023-03-05T10:40:56.102Z,24.05
2023-03-05T10:42:06.085Z,20.15
2023-03-05T10:43:19.375Z,20.25
2023-03-05T10:44:27.665Z,22.05
2023-03-05T10:45:33.224Z,40.05
2023-03-05T10:46:38.218Z,47.15
2023-03-05T10:47:45.318Z,29.50
2023-03-05T10:48:50.605Z,39.97
2023-03-05T10:49:54.224Z,33.15
2023-03-05T10:51:01.290Z,19.60
2023-03-05T10:52:06.695Z,16.13
2023-03-05T10:53:16.709Z,15.95
2023-03-05T10:54:25.678Z,15.05
2023-03-05T10:55:28.525Z,15.93
2023-03-05T10:56:31.806Z,14.13
2023-03-05T10:57:33.568Z,14.00
2023-03-05T10:58:36.305Z,14.57
2023-03-05T10:59:38.208Z,13.90
2023-03-05T11:00:41.257Z,15.77
2023-03-05T11:02:01.877Z,13.13
2023-03-05T11:03:06.446Z,13.57
2023-03-05T11:04:26.434Z,14.88
2023-03-05T11:05:47.703Z,14.32
2023-03-05T11:06:49.988Z,14.48
2023-03-05T11:07:52.753Z,15.00
2023-03-05T11:08:55.498Z,15.15
2023-03-05T11:10:16.205Z,15.48
2023-03-05T11:11:19.602Z,14.73
2023-03-05T11:12:24.561Z,14.88
2023-03-05T11:13:28.102Z,14.13
2023-03-05T11:14:33.350Z,14.85
2023-03-05T11:15:36.154Z,15.77
2023-03-05T11:16:50.822Z,14.48
2023-03-05T11:18:15.584Z,14.60
2023-03-05T11:19:20.737Z,16.00
2023-03-05T11:20:35.045Z,15.25
2023-03-05T11:21:37.861Z,15.40
2023-03-05T11:22:40.817Z,15.95
2023-03-05T11:23:43.546Z,17.55
2023-03-05T11:24:46.658Z,18.15
2023-03-05T11:25:56.944Z,14.77
2023-03-05T11:26:59.384Z,15.82
2023-03-05T11:28:04.318Z,20.48
2023-03-05T11:29:21.319Z,16.40
2023-03-05T11:30:27.482Z,16.38
2023-03-05T11:31:31.343Z,17.17
2023-03-05T11:32:34.587Z,19.50
2023-03-05T11:33:38.353Z,23.30
2023-03-05T11:34:40.278Z,15.98
2023-03-05T11:35:44.790Z,16.23
2023-03-05T11:37:03.904Z,17.50
2023-03-05T11:38:20.564Z,15.88
2023-03-05T11:39:24.881Z,16.88
2023-03-05T11:40:28.258Z,19.67
2023-03-05T11:41:35.158Z,15.07
2023-03-05T11:42:38.301Z,18.52
2023-03-05T11:43:42.458Z,16.45
2023-03-05T11:44:48.385Z,15.35
2023-03-05T11:45:52.122Z,20.95
2023-03-05T11:46:56.732Z,12.32
2023-03-05T11:48:03.968Z,20.15
2023-03-05T11:49:07.877Z,13.73
2023-03-05T11:50:19.910Z,14.43
2023-03-05T11:51:27.492Z,15.55
2023-03-05T11:52:32.220Z,15.63
2023-03-05T11:53:37.076Z,15.40
2023-03-05T11:54:43.040Z,12.05
2023-03-05T11:55:47.948Z,11.98
2023-03-05T11:56:53.001Z,12.98
2023-03-05T11:58:04.318Z,12.98
2023-03-05T11:59:13.960Z,11.75
2023-03-05T12:00:19.331Z,13.68
2023-03-05T12:01:22.960Z,13.82
2023-03-05T12:02:28.210Z,17.38
2023-03-05T12:03:34.499Z,12.73
2023-03-05T12:04:37.708Z,10.57
2023-03-05T12:05:41.663Z,11.30
2023-03-05T12:06:45.942Z,9.95
2023-03-05T12:07:50.637Z,10.88
2023-03-05T12:08:57.527Z,9.95
2023-03-05T12:10:00.990Z,9.48
2023-03-05T12:11:07.403Z,10.15
2023-03-05T12:12:18.832Z,9.43
2023-03-05T12:13:27.875Z,7.55
2023-03-05T12:14:35.240Z,6.80
2023-03-05T12:16:02.071Z,8.50
2023-03-05T12:17:08.425Z,7.97
2023-03-05T12:18:17.729Z,9.20
2023-03-05T12:19:35.712Z,7.15
2023-03-05T12:20:44.367Z,7.95
2023-03-05T12:21:50.774Z,7.03
2023-03-05T12:22:52.702Z,6.82
2023-03-05T12:23:58.996Z,6.20
2023-03-05T12:25:27.064Z,6.05
2023-03-05T12:26:56.105Z,6.28
2023-03-05T12:27:59.516Z,7.22
2023-03-05T12:29:01.432Z,7.43
2023-03-05T12:30:05.657Z,6.38
2023-03-05T12:31:27.169Z,6.50
2023-03-05T12:32:53.988Z,6.95
2023-03-05T12:33:56.790Z,6.65
2023-03-05T12:35:00.730Z,5.30
2023-03-05T12:36:37.327Z,6.35
2023-03-05T12:38:13.622Z,5.47
2023-03-05T12:39:50.933Z,5.22
2023-03-05T12:40:53.771Z,4.07
2023-03-05T12:41:56.528Z,3.97
2023-03-05T12:43:01.649Z,4.22
2023-03-05T12:44:20.669Z,3.70
2023-03-05T12:45:42.782Z,3.40
2023-03-05T12:46:45.667Z,3.40
2023-03-05T12:47:49.212Z,3.47
2023-03-05T12:48:51.206Z,3.40
2023-03-05T12:49:54.037Z,3.67
2023-03-05T12:50:59.385Z,3.60
2023-03-05T12:52:04.828Z,3.63
2023-03-05T12:53:12.055Z,3.40
2023-03-05T12:54:25.515Z,3.50
2023-03-05T12:55:29.859Z,3.45
2023-03-05T12:56:35.510Z,3.70
2023-03-05T12:57:37.420Z,3.47
2023-03-05T12:58:42.147Z,3.53
2023-03-05T12:59:47.726Z,3.03
2023-03-05T13:00:52.282Z,3.35
2023-03-05T13:01:56.806Z,3.20
2023-03-05T13:03:00.628Z,3.20
2023-03-05T13:04:10.547Z,3.60
2023-03-05T13:05:19.076Z,3.28
2023-03-05T13:06:27.947Z,3.28
2023-03-05T13:07:30.718Z,3.00
2023-03-05T13:08:35.612Z,2.90
2023-03-05T13:09:38.429Z,3.45
2023-03-05T13:10:40.209Z,3.42
2023-03-05T13:11:44.114Z,4.00
2023-03-05T13:12:52.951Z,3.58
2023-03-05T13:13:55.745Z,3.88
2023-03-05T13:15:00.648Z,3.30
2023-03-05T13:16:03.790Z,3.10
2023-03-05T13:17:44.290Z,2.80
2023-03-05T13:18:47.473Z,3.20
2023-03-05T13:19:50.585Z,3.05
2023-03-05T13:21:02.541Z,3.13
2023-03-05T13:22:11.614Z,3.03
2023-03-05T13:23:20.837Z,3.30
2023-03-05T13:24:23.701Z,3.10
2023-03-05T13:25:25.829Z,2.95
2023-03-05T13:26:30.069Z,2.58
2023-03-05T13:27:33.103Z,3.92
2023-03-05T13:28:37.458Z,2.33
2023-03-05T13:29:50.678Z,2.70
2023-03-05T13:30:55.007Z,3.20
2023-03-05T13:32:00.438Z,3.20
2023-03-05T13:33:03.612Z,2.47
2023-03-05T13:34:15.026Z,2.78
2023-03-05T13:35:17.288Z,4.22
2023-03-05T13:36:20.740Z,6.28
2023-03-05T13:37:26.546Z,3.08
2023-03-05T13:38:32.684Z,10.50
2023-03-05T13:39:38.805Z,7.18
2023-03-05T13:40:41.479Z,9.80
2023-03-05T13:41:59.961Z,8.77
2023-03-05T13:43:13.564Z,12.48
2023-03-05T13:44:21.755Z,4.30
2023-03-05T13:45:28.409Z,3.70
2023-03-05T13:46:32.495Z,3.65
2023-03-05T13:47:36.585Z,2.72
2023-03-05T13:48:38.401Z,3.00
2023-03-05T13:49:41.179Z,3.38
2023-03-05T13:50:43.216Z,3.38
2023-03-05T13:51:47.369Z,4.20
2023-03-05T13:52:50.645Z,3.30
2023-03-05T13:53:53.897Z,3.28
2023-03-05T13:54:55.850Z,8.98
2023-03-05T13:56:00.072Z,6.43
2023-03-05T13:57:04.327Z,14.02
2023-03-05T13:58:07.428Z,9.48
2023-03-05T13:59:17.027Z,29.13
2023-03-05T14:00:34.224Z,6.85
2023-03-05T14:01:43.623Z,10.25
2023-03-05T14:02:46.387Z,7.25
2023-03-05T14:03:49.689Z,4.95
2023-03-05T14:04:52.572Z,4.90
2023-03-05T14:05:54.534Z,4.53
2023-03-05T14:07:01.222Z,3.67
2023-03-05T14:08:04.765Z,4.43
2023-03-05T14:09:09.466Z,4.10
2023-03-05T14:10:29.755Z,5.18
2023-03-05T14:11:31.575Z,5.80
2023-03-05T14:12:36.913Z,4.50
2023-03-05T14:13:39.149Z,4.18
2023-03-05T14:14:44.986Z,5.88